Time;durP1;ratioP1;P1;durP2;ratioP2;P2;SDS_P1;SDS_P2;PMS_P1;PMS_P2;Temp;Humidity;BMP_temperature;BMP_pressure;BME280_temperature;BME280_humidity;BME280_pressure;Samples;Min_cycle;Max_cycle;Signal;HPM_P1;HPM_P2
2023/05/06 00:01:40;;;;;;;15.75;13.05;;;;;;;14.26;50.68;100341.13;4947219;28;97329;-81
2023/05/06 00:04:06;;;;;;;14.25;12.45;;;;;;;14.51;49.98;100361.03;4940166;28;98518;-81
2023/05/06 00:06:32;;;;;;;13.60;12.30;;;;;;;14.39;50.29;100359.00;4916537;28;100845;-81
2023/05/06 00:08:58;;;;;;;14.10;12.80;;;;;;;14.18;51.13;100367.06;4939593;28;97030;-81
2023/05/06 00:11:24;;;;;;;13.68;12.57;;;;;;;14.17;50.68;100320.47;4929373;28;96887;-81
2023/05/06 00:13:49;;;;;;;14.30;12.82;;;;;;;14.35;50.54;100344.25;4920614;28;101619;-81
2023/05/06 00:16:15;;;;;;;16.35;12.77;;;;;;;14.18;50.39;100318.69;4914467;28;101353;-81
2023/05/06 00:18:41;;;;;;;13.75;12.52;;;;;;;14.14;51.20;100338.25;4937274;28;96740;-81
2023/05/06 00:21:07;;;;;;;13.23;12.10;;;;;;;14.28;50.45;100322.56;4939979;28;96844;-81
2023/05/06 00:23:32;;;;;;;13.10;11.90;;;;;;;14.43;50.34;100328.91;4930708;28;101508;-81
2023/05/06 00:25:58;;;;;;;15.30;13.73;;;;;;;14.30;50.63;100328.63;4922424;28;97555;-81
2023/05/06 00:28:23;;;;;;;13.43;12.30;;;;;;;14.06;50.89;100301.66;4946839;28;96875;-80
2023/05/06 00:30:49;;;;;;;13.98;12.77;;;;;;;14.22;51.18;100331.69;4918405;28;97338;-81
2023/05/06 00:33:14;;;;;;;19.35;13.82;;;;;;;13.94;51.19;100331.28;4906577;28;101424;-81
2023/05/06 00:35:40;;;;;;;12.98;11.70;;;;;;;14.18;50.80;100335.38;4936654;28;101208;-81
2023/05/06 00:38:07;;;;;;;14.70;13.23;;;;;;;14.21;50.68;100331.72;4926684;28;97277;-80
2023/05/06 00:40:33;;;;;;;13.75;11.57;;;;;;;14.21;50.67;100321.16;4934729;28;97328;-81
2023/05/06 00:42:58;;;;;;;14.75;12.13;;;;;;;14.11;51.11;100304.94;4942344;28;101200;-81
2023/05/06 00:45:24;;;;;;;13.48;12.25;;;;;;;14.16;50.84;100321.38;4933552;28;101431;-80
2023/05/06 00:47:50;;;;;;;14.18;12.73;;;;;;;14.02;51.29;100316.81;4915656;28;97267;-81
2023/05/06 00:50:16;;;;;;;14.90;11.43;;;;;;;14.20;50.93;100322.97;4941005;28;96834;-81
2023/05/06 00:52:43;;;;;;;13.60;12.05;;;;;;;14.20;50.90;100320.31;4922732;28;101426;-81
2023/05/06 00:55:09;;;;;;;13.00;11.75;;;;;;;14.13;51.20;100303.06;4941441;28;98354;-82
2023/05/06 00:57:35;;;;;;;13.93;12.48;;;;;;;14.14;51.06;100306.59;4942199;28;97196;-81
2023/05/06 01:00:00;;;;;;;13.75;12.52;;;;;;;14.04;50.99;100291.16;4914368;28;97236;-80
2023/05/06 01:02:26;;;;;;;12.93;11.95;;;;;;;13.95;51.13;100304.81;4921855;28;101098;-81
2023/05/06 01:04:54;;;;;;;14.65;11.93;;;;;;;14.16;51.08;100312.63;4923233;28;101740;-81
2023/05/06 01:07:25;;;;;;;13.80;12.40;;;;;;;14.23;51.13;100324.59;4942474;28;97239;-81
2023/05/06 01:10:20;;;;;;;13.25;12.05;;;;;;;14.18;50.95;100319.53;4917805;28;96827;-81
2023/05/06 01:13:00;;;;;;;14.07;12.77;;;;;;;14.00;51.58;100320.44;4924064;28;101673;-81
2023/05/06 01:15:47;;;;;;;13.23;12.10;;;;;;;13.91;51.56;100291.84;4949651;28;98948;-80
2023/05/06 01:18:16;;;;;;;14.32;12.73;;;;;;;13.87;52.20;100306.09;4928979;28;97267;-81
2023/05/06 01:20:43;;;;;;;13.73;12.30;;;;;;;14.13;51.27;100318.03;4911111;28;97472;-81
2023/05/06 01:23:11;;;;;;;13.55;12.00;;;;;;;14.01;51.37;100333.53;4920227;28;101072;-80
2023/05/06 01:25:37;;;;;;;12.77;11.52;;;;;;;13.96;51.87;100330.28;4962960;28;100832;-81
2023/05/06 01:28:02;;;;;;;14.77;11.75;;;;;;;14.04;51.19;100335.19;4929109;28;97226;-81
2023/05/06 01:30:33;;;;;;;15.20;13.60;;;;;;;14.00;52.04;100337.13;4926111;28;97188;-81
2023/05/06 01:33:10;;;;;;;18.23;12.88;;;;;;;13.88;52.24;100343.00;4949590;28;101772;-81
2023/05/06 01:36:05;;;;;;;14.07;12.68;;;;;;;13.86;52.45;100344.00;4919439;28;101518;-82
2023/05/06 01:38:44;;;;;;;14.85;13.30;;;;;;;13.91;51.90;100337.56;4942263;28;97036;-81
2023/05/06 01:41:14;;;;;;;16.05;12.07;;;;;;;13.86;52.11;100333.44;4915498;28;97289;-81
2023/05/06 01:43:43;;;;;;;13.68;12.13;;;;;;;13.95;51.69;100325.94;4927766;28;101618;-82
2023/05/06 01:46:12;;;;;;;13.00;11.80;;;;;;;13.71;52.40;100327.94;4925712;28;101707;-81
2023/05/06 01:48:38;;;;;;;13.85;12.55;;;;;;;13.83;52.69;100313.31;4913526;28;97194;-82
2023/05/06 01:51:04;;;;;;;13.90;12.40;;;;;;;13.87;52.41;100306.97;4931301;28;96845;-81
2023/05/06 01:53:31;;;;;;;14.05;12.73;;;;;;;13.71;51.81;100276.97;4915351;28;101608;-82
2023/05/06 01:55:57;;;;;;;13.98;12.73;;;;;;;13.75;52.35;100303.13;4919544;28;100930;-82
2023/05/06 01:58:22;;;;;;;19.25;12.35;;;;;;;13.95;51.78;100299.53;4919625;28;96834;-81
2023/05/06 02:00:48;;;;;;;13.82;12.63;;;;;;;13.72;52.25;100297.16;4924983;28;97163;-81
2023/05/06 02:03:13;;;;;;;13.52;12.20;;;;;;;13.73;52.47;100299.72;4918674;28;101221;-81
2023/05/06 02:05:39;;;;;;;14.10;12.73;;;;;;;13.61;52.56;100283.59;4924792;28;101100;-81
2023/05/06 02:08:05;;;;;;;12.98;11.60;;;;;;;13.85;52.13;100313.25;4931104;28;97226;-81
2023/05/06 02:10:31;;;;;;;12.45;11.23;;;;;;;13.86;52.23;100310.53;4929846;28;96889;-81
2023/05/06 02:13:01;;;;;;;13.35;12.13;;;;;;;13.53;52.80;100311.19;4931616;28;101456;-81
2023/05/06 02:15:26;;;;;;;14.13;12.73;;;;;;;13.66;52.52;100302.72;4916082;28;101069;-81
2023/05/06 02:17:52;;;;;;;14.15;13.00;;;;;;;13.65;52.99;100308.94;4916608;28;97517;-81
2023/05/06 02:20:17;;;;;;;14.50;11.60;;;;;;;13.60;53.15;100309.13;4949200;28;97192;-81
2023/05/06 02:22:43;;;;;;;12.98;11.68;;;;;;;13.49;53.24;100306.97;4914347;28;101175;-82
2023/05/06 02:25:09;;;;;;;14.93;12.70;;;;;;;13.38;53.76;100295.22;4906096;28;101496;-81
2023/05/06 02:27:34;;;;;;;17.08;12.82;;;;;;;13.35;53.16;100267.22;4928126;28;96945;-81
2023/05/06 02:30:00;;;;;;;12.60;11.43;;;;;;;13.70;52.59;100299.00;4935209;28;96982;-81
2023/05/06 02:32:28;;;;;;;12.95;11.85;;;;;;;13.67;52.35;100291.22;4916233;28;101716;-81
2023/05/06 02:34:53;;;;;;;18.40;12.85;;;;;;;13.80;52.48;100302.91;4948703;28;101759;-81
2023/05/06 02:37:21;;;;;;;13.82;12.43;;;;;;;13.76;52.42;100299.56;4931332;28;97492;-81
2023/05/06 02:39:46;;;;;;;14.30;12.98;;;;;;;13.70;52.61;100305.16;4924350;28;96882;-82
2023/05/06 02:42:13;;;;;;;13.02;11.60;;;;;;;13.69;52.59;100289.38;4915346;28;101802;-81
2023/05/06 02:44:39;;;;;;;16.30;12.05;;;;;;;13.75;52.36;100286.44;4933087;28;97955;-81
2023/05/06 02:47:05;;;;;;;13.88;11.75;;;;;;;13.53;52.97;100294.53;4946086;28;97044;-81
2023/05/06 02:49:30;;;;;;;13.18;11.85;;;;;;;13.64;53.04;100294.00;4948783;28;97057;-82
2023/05/06 02:51:56;;;;;;;15.35;13.30;;;;;;;13.61;52.77;100297.63;4931385;28;101713;-82
2023/05/06 02:54:21;;;;;;;13.50;12.13;;;;;;;13.53;52.36;100260.25;4911827;28;100744;-81
2023/05/06 02:56:47;;;;;;;14.48;13.13;;;;;;;13.69;52.43;100307.84;4912923;28;98017;-81
2023/05/06 02:59:12;;;;;;;13.05;11.77;;;;;;;13.83;52.14;100315.97;4920738;28;97377;-81
2023/05/06 03:01:38;;;;;;;14.45;12.90;;;;;;;13.78;51.65;100307.41;4931517;28;101228;-81
2023/05/06 03:04:03;;;;;;;13.88;12.57;;;;;;;13.77;51.89;100309.19;4928745;28;101463;-81
2023/05/06 03:06:30;;;;;;;13.45;12.30;;;;;;;13.86;52.42;100328.16;4917956;28;97114;-81
2023/05/06 03:08:56;;;;;;;14.18;12.85;;;;;;;13.79;52.23;100328.44;4929318;28;97023;-81
2023/05/06 03:11:22;;;;;;;13.93;12.75;;;;;;;13.68;53.13;100333.38;4945425;28;101062;-81
2023/05/06 03:13:48;;;;;;;13.93;12.68;;;;;;;13.63;52.56;100338.00;4932016;28;101217;-81
2023/05/06 03:16:13;;;;;;;14.40;13.13;;;;;;;13.76;52.43;100344.44;4930057;28;97535;-81
2023/05/06 03:18:42;;;;;;;14.60;13.50;;;;;;;13.65;52.80;100336.16;4924424;28;97379;-81
2023/05/06 03:21:09;;;;;;;15.15;13.55;;;;;;;13.76;52.60;100333.88;4919927;28;101527;-81
2023/05/06 03:23:36;;;;;;;16.50;13.38;;;;;;;13.81;52.40;100352.09;4923343;28;101464;-81
2023/05/06 03:26:02;;;;;;;14.10;12.90;;;;;;;13.79;52.20;100339.00;4927644;28;97288;-81
2023/05/06 03:28:28;;;;;;;14.07;12.65;;;;;;;13.85;52.18;100335.22;4935461;28;97383;-81
2023/05/06 03:30:54;;;;;;;13.20;12.10;;;;;;;13.96;52.07;100359.31;4928403;28;101627;-81
2023/05/06 03:33:20;;;;;;;13.50;12.40;;;;;;;13.85;52.36;100340.50;4899971;28;100716;-81
2023/05/06 03:35:46;;;;;;;13.85;12.60;;;;;;;13.79;52.92;100352.19;4916888;28;96885;-81
2023/05/06 03:38:11;;;;;;;13.73;12.35;;;;;;;13.66;53.40;100343.13;4939077;28;97393;-81
2023/05/06 03:40:44;;;;;;;14.85;13.40;;;;;;;13.73;53.29;100335.78;4946349;28;101234;-81
2023/05/06 03:43:11;;;;;;;14.68;12.38;;;;;;;13.67;53.53;100347.50;4905696;28;100977;-81
2023/05/06 03:45:37;;;;;;;13.63;12.43;;;;;;;13.56;53.93;100334.78;4927923;28;97050;-81
2023/05/06 03:48:04;;;;;;;14.07;12.80;;;;;;;13.75;53.03;100337.41;4928107;28;97432;-81
2023/05/06 03:50:32;;;;;;;14.20;12.45;;;;;;;13.85;53.35;100335.22;4943827;28;101181;-81
2023/05/06 03:52:57;;;;;;;13.75;12.60;;;;;;;13.63;52.97;100292.31;4928117;28;101671;-81
2023/05/06 03:55:25;;;;;;;14.35;13.15;;;;;;;13.57;54.22;100327.72;4923149;28;97275;-80
2023/05/06 03:57:50;;;;;;;16.27;13.50;;;;;;;13.42;54.41;100329.28;4921461;28;97145;-82
2023/05/06 04:00:18;;;;;;;15.70;13.57;;;;;;;13.33;55.24;100319.16;4927279;28;101404;-81
2023/05/06 04:02:49;;;;;;;14.95;13.50;;;;;;;13.36;54.72;100330.44;4915356;28;101595;-81
2023/05/06 04:05:21;;;;;;;21.48;13.20;;;;;;;13.65;54.03;100333.50;4910886;28;97144;-81
2023/05/06 04:07:46;;;;;;;17.35;13.88;;;;;;;13.74;53.75;100334.88;4919836;28;98331;-82
2023/05/06 04:10:13;;;;;;;16.20;12.70;;;;;;;13.41;55.00;100329.34;4910977;28;101426;-81
2023/05/06 04:12:40;;;;;;;18.27;13.80;;;;;;;13.44;54.86;100326.56;4930644;28;101404;-82
2023/05/06 04:15:07;;;;;;;14.10;12.88;;;;;;;13.52;54.76;100330.56;4913227;28;97322;-81
2023/05/06 04:17:33;;;;;;;19.02;13.85;;;;;;;13.34;55.20;100328.78;4910558;28;96904;-81
2023/05/06 04:20:05;;;;;;;14.23;12.60;;;;;;;13.34;54.86;100316.44;4912732;28;100286;-82
2023/05/06 04:22:32;;;;;;;14.52;13.10;;;;;;;13.21;56.28;100319.69;4915462;28;101090;-81
2023/05/06 04:24:59;;;;;;;17.08;13.20;;;;;;;13.07;56.59;100299.22;4911735;28;97276;-81
2023/05/06 04:27:28;;;;;;;16.98;13.25;;;;;;;13.00;57.11;100287.22;4920016;28;97020;-81
2023/05/06 04:29:55;;;;;;;13.73;12.50;;;;;;;12.98;56.26;100255.69;4904950;28;101209;-81
2023/05/06 04:32:24;;;;;;;15.65;13.05;;;;;;;13.04;56.70;100265.09;4919808;28;100926;-81
2023/05/06 04:34:52;;;;;;;14.60;12.70;;;;;;;13.08;56.24;100253.50;4912117;28;97332;-81
2023/05/06 04:37:20;;;;;;;16.38;13.05;;;;;;;12.96;57.33;100254.06;4941269;28;97165;-81
2023/05/06 04:39:54;;;;;;;14.18;12.88;;;;;;;12.92;57.25;100234.91;4889044;28;101246;-81
2023/05/06 04:42:21;;;;;;;13.70;12.48;;;;;;;12.98;56.52;100220.59;4911609;28;101356;-81
2023/05/06 04:44:55;;;;;;;14.57;13.07;;;;;;;12.71;57.54;100191.91;4911552;28;96938;-81
2023/05/06 04:47:26;;;;;;;23.70;13.68;;;;;;;12.81;57.55;100202.91;4912591;28;97358;-81
2023/05/06 04:49:52;;;;;;;13.40;12.27;;;;;;;12.75;57.48;100206.69;4911291;28;101353;-81
2023/05/06 04:52:18;;;;;;;17.15;12.82;;;;;;;12.59;58.14;100195.09;4904831;28;100190;-81
2023/05/06 04:54:44;;;;;;;14.32;13.23;;;;;;;12.75;57.34;100204.03;4910914;28;97228;-81
2023/05/06 04:57:10;;;;;;;13.80;12.63;;;;;;;13.00;56.60;100239.81;4908788;28;97222;-81
2023/05/06 04:59:36;;;;;;;13.57;12.18;;;;;;;13.22;55.99;100292.41;4926490;28;98619;-81
2023/05/06 05:02:02;;;;;;;13.73;12.48;;;;;;;13.32;55.17;100291.97;4911112;28;100577;-82
2023/05/06 05:04:28;;;;;;;13.30;12.05;;;;;;;13.38;55.00;100306.66;4914153;28;96891;-82
2023/05/06 05:06:53;;;;;;;14.38;12.70;;;;;;;13.52;54.74;100312.09;4920355;28;97656;-81
2023/05/06 05:09:19;;;;;;;13.15;11.95;;;;;;;13.42;55.10;100291.53;4916993;28;100652;-81
2023/05/06 05:11:46;;;;;;;13.60;12.35;;;;;;;13.61;54.67;100305.56;4929003;28;99761;-81
2023/05/06 05:14:12;;;;;;;13.40;12.23;;;;;;;13.65;53.88;100301.88;4924490;28;96735;-81
2023/05/06 05:16:37;;;;;;;13.38;12.15;;;;;;;13.78;54.20;100310.88;4923699;28;97114;-81
2023/05/06 05:19:05;;;;;;;13.07;11.85;;;;;;;13.56;55.13;100305.78;4922856;28;101147;-81
2023/05/06 05:21:31;;;;;;;18.10;12.40;;;;;;;13.64;54.62;100289.59;4926368;28;100608;-81
2023/05/06 05:23:57;;;;;;;16.02;13.18;;;;;;;13.52;54.84;100282.25;4922464;28;96802;-81
2023/05/06 05:26:23;;;;;;;13.10;12.05;;;;;;;13.55;54.80;100290.00;4922257;28;96988;-81
2023/05/06 05:28:51;;;;;;;13.63;12.38;;;;;;;13.39;55.13;100284.63;4924399;28;101506;-81
2023/05/06 05:31:16;;;;;;;14.80;12.30;;;;;;;13.19;56.04;100288.13;4923758;28;101229;-81
2023/05/06 05:33:42;;;;;;;13.13;11.85;;;;;;;13.37;55.86;100297.00;4930101;28;97070;-81
2023/05/06 05:36:14;;;;;;;14.70;12.20;;;;;;;13.19;56.30;100284.66;4901463;28;97376;-80
2023/05/06 05:38:40;;;;;;;14.30;12.88;;;;;;;13.10;56.78;100302.56;4912480;28;101680;-81
2023/05/06 05:41:06;;;;;;;13.93;12.50;;;;;;;13.30;56.00;100304.34;4919138;28;99586;-81
2023/05/06 05:43:32;;;;;;;14.05;12.70;;;;;;;13.34;56.31;100299.78;4927111;28;97776;-81
2023/05/06 05:46:00;;;;;;;14.02;12.68;;;;;;;13.26;56.41;100301.91;4917776;28;96929;-81
2023/05/06 05:48:25;;;;;;;14.48;12.98;;;;;;;13.14;56.63;100283.06;4938089;28;100961;-81
2023/05/06 05:50:51;;;;;;;13.35;12.25;;;;;;;13.33;55.93;100292.81;4930149;28;101459;-81
2023/05/06 05:53:16;;;;;;;17.10;12.60;;;;;;;13.25;56.47;100290.50;4917247;28;97862;-81
2023/05/06 05:55:42;;;;;;;14.20;12.80;;;;;;;13.38;56.09;100288.19;4919313;28;97010;-81
2023/05/06 05:58:10;;;;;;;13.93;12.63;;;;;;;13.50;55.65;100295.53;4934688;28;101291;-81
2023/05/06 06:00:35;;;;;;;15.88;13.38;;;;;;;13.53;55.96;100302.44;4930592;28;101266;-81
2023/05/06 06:03:08;;;;;;;14.18;11.20;;;;;;;13.57;56.31;100304.00;4924662;28;97164;-81
2023/05/06 06:05:34;;;;;;;14.02;12.82;;;;;;;13.65;55.93;100306.28;4942917;28;97565;-80
2023/05/06 06:07:59;;;;;;;14.27;13.05;;;;;;;13.69;55.36;100289.38;4932654;28;101900;-81
2023/05/06 06:10:26;;;;;;;14.95;13.45;;;;;;;13.81;55.58;100309.88;4893008;28;101790;-81
2023/05/06 06:12:52;;;;;;;13.30;12.00;;;;;;;13.64;55.46;100294.84;4922387;28;96909;-81
2023/05/06 06:15:21;;;;;;;17.13;12.60;;;;;;;13.54;56.82;100288.31;4917598;28;97043;-81
2023/05/06 06:17:48;;;;;;;13.40;12.13;;;;;;;13.54;58.20;100302.34;4926101;28;98472;-81
2023/05/06 06:20:14;;;;;;;13.82;11.95;;;;;;;13.59;57.05;100299.50;4920161;28;100689;-80
2023/05/06 06:22:40;;;;;;;14.32;13.13;;;;;;;13.47;57.86;100290.41;4921290;28;98061;-80
2023/05/06 06:25:06;;;;;;;14.45;12.35;;;;;;;13.20;59.57;100279.28;4916205;28;96872;-81
2023/05/06 06:27:38;;;;;;;19.60;12.60;;;;;;;13.23;58.76;100294.97;4915658;28;101506;-81
2023/05/06 06:30:05;;;;;;;14.27;12.95;;;;;;;13.41;58.87;100306.50;4918996;28;101449;-80
2023/05/06 06:32:31;;;;;;;15.88;13.30;;;;;;;13.18;59.37;100285.53;4907378;28;96974;-82
2023/05/06 06:34:56;;;;;;;16.02;12.95;;;;;;;13.00;60.42;100296.03;4910901;28;97447;-81
2023/05/06 06:37:22;;;;;;;16.95;13.65;;;;;;;13.03;60.00;100295.00;4901193;28;101273;-80
2023/05/06 06:39:47;;;;;;;14.85;13.48;;;;;;;13.14;59.82;100314.69;4904494;28;101382;-81
2023/05/06 06:42:13;;;;;;;17.77;13.73;;;;;;;13.09;60.19;100311.41;4911946;28;97500;-81
2023/05/06 06:44:48;;;;;;;14.48;13.00;;;;;;;13.12;60.47;100302.53;4948975;28;97200;-80
2023/05/06 06:47:13;;;;;;;20.63;14.30;;;;;;;12.78;60.78;100279.44;4911557;28;101603;-81
2023/05/06 06:49:39;;;;;;;15.25;12.77;;;;;;;12.96;60.97;100298.84;4898396;28;101511;-80
2023/05/06 06:52:04;;;;;;;13.30;12.20;;;;;;;13.20;59.73;100308.28;4914060;28;96954;-81
2023/05/06 06:54:30;;;;;;;13.82;12.70;;;;;;;13.26;59.47;100294.84;4917161;28;97363;-80
2023/05/06 06:56:56;;;;;;;13.52;12.43;;;;;;;13.54;58.83;100312.06;4913576;28;101557;-80
2023/05/06 06:59:22;;;;;;;15.40;13.93;;;;;;;13.63;59.14;100322.16;4912950;28;101021;-80
2023/05/06 07:01:47;;;;;;;15.27;13.88;;;;;;;13.54;58.91;100298.88;4903865;28;97171;-80
2023/05/06 07:04:13;;;;;;;14.93;13.43;;;;;;;13.71;58.56;100308.63;4894769;28;96911;-80
2023/05/06 07:06:38;;;;;;;14.82;13.15;;;;;;;13.82;58.99;100323.03;4930138;28;99062;-81
2023/05/06 07:09:04;;;;;;;14.50;13.30;;;;;;;13.82;58.82;100315.13;4923457;28;101564;-80
2023/05/06 07:11:29;;;;;;;19.88;14.57;;;;;;;13.78;59.74;100302.13;4932229;28;97327;-81
2023/05/06 07:13:55;;;;;;;15.98;14.15;;;;;;;13.58;59.95;100282.84;4938225;28;97363;-80
2023/05/06 07:16:20;;;;;;;14.25;13.18;;;;;;;13.53;59.91;100300.66;4898044;28;101252;-80
2023/05/06 07:18:46;;;;;;;14.70;13.48;;;;;;;13.31;60.72;100292.00;4938621;28;101421;-80
2023/05/06 07:21:12;;;;;;;15.60;14.05;;;;;;;13.18;62.10;100275.00;4918569;28;97862;-79
2023/05/06 07:23:37;;;;;;;15.75;14.05;;;;;;;13.07;62.34;100268.47;4950415;28;97323;-81
2023/05/06 07:26:03;;;;;;;14.73;13.32;;;;;;;13.06;62.76;100269.38;4925759;28;98311;-80
2023/05/06 07:28:28;;;;;;;15.40;14.05;;;;;;;12.88;62.99;100264.91;4926919;28;101416;-80
2023/05/06 07:30:54;;;;;;;18.45;13.95;;;;;;;13.16;62.32;100277.72;4932346;28;96827;-79
2023/05/06 07:33:19;;;;;;;14.88;13.60;;;;;;;13.20;62.03;100265.25;4911341;28;97239;-79
2023/05/06 07:35:45;;;;;;;15.13;13.73;;;;;;;13.17;62.47;100266.25;4921425;28;100989;-79
2023/05/06 07:38:10;;;;;;;15.20;13.52;;;;;;;12.77;63.54;100278.59;4909996;28;101493;-79
2023/05/06 07:40:36;;;;;;;15.30;13.70;;;;;;;13.15;62.06;100286.56;4943861;28;96792;-79
2023/05/06 07:43:02;;;;;;;17.35;15.00;;;;;;;13.43;61.41;100283.53;4923071;28;97237;-79
2023/05/06 07:45:28;;;;;;;15.00;13.38;;;;;;;13.04;62.35;100226.44;4910976;28;100887;-81
2023/05/06 07:47:53;;;;;;;15.57;11.73;;;;;;;12.95;63.70;100261.09;4920163;28;101765;-79
2023/05/06 07:50:19;;;;;;;14.88;12.18;;;;;;;13.00;63.59;100242.44;4939268;28;97277;-79
2023/05/06 07:52:44;;;;;;;15.02;12.75;;;;;;;12.79;63.61;100234.56;4929223;28;98596;-78
2023/05/06 07:55:10;;;;;;;17.05;15.68;;;;;;;12.77;64.07;100243.47;4927651;28;97567;-79
2023/05/06 07:57:36;;;;;;;15.90;14.13;;;;;;;12.55;64.64;100241.78;4920664;28;98282;-79
2023/05/06 08:00:02;;;;;;;14.77;13.40;;;;;;;12.37;64.29;100226.78;4920696;28;96868;-79
2023/05/06 08:02:42;;;;;;;15.23;13.50;;;;;;;12.33;65.24;100230.47;4916653;28;97127;-78
2023/05/06 08:05:11;;;;;;;17.30;14.60;;;;;;;12.03;65.61;100158.94;4905811;28;101212;-79
2023/05/06 08:07:39;;;;;;;16.10;14.10;;;;;;;12.27;65.41;100214.94;4919040;28;97692;-79
2023/05/06 08:10:06;;;;;;;14.63;13.27;;;;;;;12.50;65.71;100222.69;4922119;28;97294;-81
2023/05/06 08:12:31;;;;;;;16.02;14.38;;;;;;;12.66;64.27;100236.91;4943958;28;97233;-80
2023/05/06 08:14:57;;;;;;;16.30;14.93;;;;;;;12.79;63.51;100220.56;4908921;28;101048;-79
2023/05/06 08:17:22;;;;;;;15.27;13.82;;;;;;;13.04;63.63;100287.03;4921121;28;97991;-79
2023/05/06 08:19:48;;;;;;;18.42;15.32;;;;;;;13.14;62.61;100293.59;4921925;28;97396;-80
2023/05/06 08:22:15;;;;;;;16.90;14.73;;;;;;;13.26;62.04;100302.75;4929040;28;97230;-79
2023/05/06 08:24:40;;;;;;;14.70;13.18;;;;;;;13.41;61.64;100319.69;4903742;28;101230;-80
2023/05/06 08:27:06;;;;;;;15.38;14.07;;;;;;;13.48;61.28;100317.63;4911941;28;102180;-80
2023/05/06 08:29:31;;;;;;;16.13;14.48;;;;;;;13.55;61.27;100326.94;4899158;28;97023;-80
2023/05/06 08:31:57;;;;;;;16.15;14.65;;;;;;;13.51;61.71;100325.38;4917877;28;97466;-81
2023/05/06 08:34:22;;;;;;;14.70;13.40;;;;;;;13.57;61.14;100346.19;4918312;28;101083;-80
2023/05/06 08:36:48;;;;;;;15.48;14.13;;;;;;;13.65;60.98;100332.66;4915015;28;101488;-80
2023/05/06 08:39:14;;;;;;;15.07;13.60;;;;;;;13.60;60.73;100314.41;4938580;28;97356;-80
2023/05/06 08:41:40;;;;;;;16.50;15.07;;;;;;;13.58;61.17;100305.69;4905174;28;97543;-80
2023/05/06 08:44:07;;;;;;;17.85;15.68;;;;;;;13.76;61.28;100323.31;4896239;28;99663;-80
2023/05/06 08:46:33;;;;;;;16.65;15.15;;;;;;;13.61;61.42;100302.91;4917015;28;101017;-80
2023/05/06 08:48:58;;;;;;;17.00;15.38;;;;;;;13.76;61.56;100330.38;4892231;28;97458;-80
2023/05/06 08:51:29;;;;;;;17.25;13.88;;;;;;;13.72;61.40;100323.53;4908760;28;97314;-80
2023/05/06 08:53:54;;;;;;;15.40;13.95;;;;;;;13.63;61.86;100318.69;4924089;28;101167;-79
2023/05/06 08:56:22;;;;;;;15.02;13.70;;;;;;;13.70;62.06;100306.91;4909101;28;100920;-81
2023/05/06 08:58:50;;;;;;;14.48;13.23;;;;;;;13.50;63.14;100300.81;4918443;28;97527;-80
2023/05/06 09:01:16;;;;;;;17.40;14.68;;;;;;;13.47;63.75;100300.94;4903407;28;97186;-81
2023/05/06 09:03:42;;;;;;;16.42;14.63;;;;;;;13.61;62.41;100304.69;4923402;28;101141;-80
2023/05/06 09:06:09;;;;;;;16.15;14.50;;;;;;;13.34;63.45;100274.28;4915097;28;97984;-81
2023/05/06 09:08:35;;;;;;;17.30;14.02;;;;;;;13.49;63.65;100280.63;4938890;28;97347;-80
2023/05/06 09:11:00;;;;;;;15.48;14.05;;;;;;;13.49;63.99;100269.22;4925679;28;97492;-80
2023/05/06 09:13:26;;;;;;;21.52;15.80;;;;;;;13.44;63.58;100277.34;4909649;28;101576;-80
2023/05/06 09:15:53;;;;;;;15.52;14.13;;;;;;;13.71;62.97;100288.38;4941295;28;98458;-81
2023/05/06 09:18:18;;;;;;;14.15;13.05;;;;;;;13.65;62.89;100288.69;4926641;28;97552;-80
2023/05/06 09:20:47;;;;;;;15.32;13.85;;;;;;;13.71;62.99;100291.03;4910598;28;97289;-80
2023/05/06 09:23:15;;;;;;;16.83;14.45;;;;;;;13.58;63.23;100274.94;4916466;28;101684;-80
2023/05/06 09:25:42;;;;;;;15.25;13.88;;;;;;;13.92;62.17;100293.56;4916868;28;97372;-80
2023/05/06 09:28:09;;;;;;;16.10;14.60;;;;;;;13.99;61.60;100308.16;4921969;28;97448;-80
2023/05/06 09:30:43;;;;;;;20.42;14.15;;;;;;;13.82;62.02;100307.19;4910907;28;97369;-80
2023/05/06 09:33:09;;;;;;;15.65;14.15;;;;;;;13.69;62.46;100303.41;4911583;28;101503;-80
2023/05/06 09:35:41;;;;;;;16.02;14.73;;;;;;;13.59;62.37;100271.34;4916114;28;101365;-80
2023/05/06 09:38:07;;;;;;;17.05;15.27;;;;;;;13.90;61.19;100309.44;4914102;28;96944;-81
2023/05/06 09:40:34;;;;;;;16.65;14.93;;;;;;;13.77;62.05;100306.56;4911176;28;97421;-80
2023/05/06 09:43:00;;;;;;;15.68;14.27;;;;;;;13.41;62.46;100290.69;4912089;28;99434;-80
2023/05/06 09:45:27;;;;;;;16.20;14.65;;;;;;;13.51;63.09;100299.00;4904167;28;100707;-81
2023/05/06 09:47:53;;;;;;;16.10;14.60;;;;;;;13.57;62.86;100302.22;4907049;28;97476;-80
2023/05/06 09:50:23;;;;;;;16.35;14.77;;;;;;;13.43;63.34;100298.50;4918652;28;97425;-79
2023/05/06 09:52:49;;;;;;;16.80;15.10;;;;;;;13.61;62.53;100294.16;4926470;28;101143;-79
2023/05/06 09:55:17;;;;;;;16.33;14.77;;;;;;;13.54;63.15;100293.59;4907217;28;101413;-81
2023/05/06 09:57:43;;;;;;;15.57;14.35;;;;;;;13.40;63.71;100303.91;4935003;28;97134;-81
2023/05/06 10:00:10;;;;;;;16.48;15.02;;;;;;;13.43;63.77;100301.16;4910572;28;97256;-80
2023/05/06 10:02:40;;;;;;;15.93;14.35;;;;;;;13.31;64.11;100289.38;4915695;28;101709;-80
2023/05/06 10:05:11;;;;;;;16.20;14.63;;;;;;;13.39;64.32;100300.44;4900864;28;101553;-81
2023/05/06 10:07:38;;;;;;;16.95;15.15;;;;;;;13.14;64.79;100282.19;4913195;28;97535;-80
2023/05/06 10:10:05;;;;;;;16.85;15.00;;;;;;;13.11;65.13;100296.38;4909513;28;97587;-80
2023/05/06 10:12:30;;;;;;;18.90;16.90;;;;;;;12.93;66.65;100288.44;4911400;28;101143;-77
2023/05/06 10:14:56;;;;;;;18.42;16.08;;;;;;;13.06;66.09;100292.22;4933774;28;101644;-79
2023/05/06 10:17:24;;;;;;;18.02;16.42;;;;;;;13.22;65.49;100287.13;4937132;28;97692;-80
2023/05/06 10:19:54;;;;;;;18.13;16.10;;;;;;;13.22;65.75;100289.78;4941962;28;97313;-79
2023/05/06 10:22:58;;;;;;;17.73;16.08;;;;;;;13.14;66.60;100283.06;4921339;28;101237;-80
2023/05/06 10:25:36;;;;;;;17.65;15.82;;;;;;;13.21;65.63;100262.56;4927225;28;101392;-80
2023/05/06 10:28:06;;;;;;;17.40;15.60;;;;;;;13.08;66.35;100269.31;4903656;28;97216;-77
2023/05/06 10:30:36;;;;;;;18.08;15.90;;;;;;;13.42;65.90;100286.25;4938731;28;98305;-77
2023/05/06 10:33:07;;;;;;;17.55;15.90;;;;;;;13.42;65.92;100288.91;4891828;28;100962;-77
2023/05/06 10:35:47;;;;;;;18.00;16.30;;;;;;;13.32;66.15;100272.63;4913138;28;101233;-78
2023/05/06 10:38:29;;;;;;;17.33;15.73;;;;;;;13.43;65.10;100293.22;4920175;28;97751;-78
2023/05/06 10:40:55;;;;;;;17.40;15.90;;;;;;;13.33;65.53;100271.72;4922617;28;97555;-78
2023/05/06 10:43:29;;;;;;;17.45;16.02;;;;;;;13.48;65.16;100285.97;4908643;28;101578;-80
2023/05/06 10:46:08;;;;;;;17.73;15.85;;;;;;;13.66;64.31;100278.97;4923074;28;98988;-77
2023/05/06 10:48:38;;;;;;;17.75;15.98;;;;;;;13.85;63.89;100297.44;4937245;28;97417;-78
2023/05/06 10:51:16;;;;;;;16.50;15.07;;;;;;;13.78;64.54;100296.84;4907447;28;97329;-76
2023/05/06 10:54:05;;;;;;;17.52;16.02;;;;;;;13.92;64.54;100299.69;4934006;28;101397;-76
2023/05/06 10:56:36;;;;;;;18.45;16.73;;;;;;;13.73;64.25;100296.22;4916298;28;101226;-79
2023/05/06 10:59:11;;;;;;;18.48;16.85;;;;;;;13.85;63.75;100298.28;4932698;28;97338;-78
2023/05/06 11:01:38;;;;;;;17.50;16.10;;;;;;;14.04;63.41;100292.97;4923832;28;97381;-77
2023/05/06 11:04:09;;;;;;;19.25;15.23;;;;;;;14.06;63.64;100293.75;4920533;28;101008;-78
2023/05/06 11:06:45;;;;;;;17.65;15.68;;;;;;;14.16;63.71;100292.34;4938849;28;98491;-79
2023/05/06 11:09:19;;;;;;;17.92;16.42;;;;;;;14.02;63.45;100271.94;4913525;28;97511;-78